createdAt,value
2022-09-26T00:03:50.688Z,8.76
2022-09-26T00:09:59.026Z,8.69
2022-09-26T00:12:26.743Z,8.74
2022-09-26T00:14:54.550Z,8.71
2022-09-26T00:17:22.258Z,8.75
2022-09-26T00:19:51.428Z,8.82
2022-09-26T00:22:19.123Z,8.83
2022-09-26T00:24:46.862Z,8.78
2022-09-26T00:27:14.617Z,8.80
2022-09-26T00:29:42.421Z,8.77
2022-09-26T00:32:10.212Z,8.69
2022-09-26T00:34:38.760Z,8.75
2022-09-26T00:37:07.885Z,8.76
2022-09-26T00:39:35.684Z,8.78
2022-09-26T00:42:03.432Z,8.79
2022-09-26T00:44:47.452Z,8.78
2022-09-26T00:47:47.932Z,8.81
2022-09-26T00:50:21.297Z,8.79
2022-09-26T00:52:55.102Z,8.66
2022-09-26T00:55:25.989Z,8.75
2022-09-26T00:57:58.921Z,8.75
2022-09-26T01:00:27.345Z,8.78
2022-09-26T01:02:55.505Z,8.78
2022-09-26T01:05:25.028Z,8.79
2022-09-26T01:07:57.141Z,8.71
2022-09-26T01:10:25.288Z,8.69
2022-09-26T01:12:53.462Z,8.84
2022-09-26T01:15:21.247Z,8.82
2022-09-26T01:17:49.036Z,8.81
2022-09-26T01:20:25.798Z,8.88
2022-09-26T01:23:28.323Z,8.92
2022-09-26T01:26:27.908Z,8.91
2022-09-26T01:29:14.884Z,8.92
2022-09-26T01:32:10.808Z,8.88
2022-09-26T01:34:50.994Z,9.08
2022-09-26T01:37:30.958Z,9.14
2022-09-26T01:40:07.137Z,9.14
2022-09-26T01:42:43.204Z,9.08
2022-09-26T01:45:18.388Z,9.15
2022-09-26T01:47:53.816Z,9.30
2022-09-26T01:50:27.569Z,9.25
2022-09-26T01:53:02.070Z,9.24
2022-09-26T01:55:34.689Z,9.26
2022-09-26T01:58:07.758Z,9.33
2022-09-26T02:00:37.446Z,9.19
2022-09-26T02:03:12.887Z,9.36
2022-09-26T02:05:45.331Z,9.39
2022-09-26T02:08:17.357Z,9.31
2022-09-26T02:10:50.158Z,9.39
2022-09-26T02:13:21.336Z,9.51
2022-09-26T02:15:54.240Z,9.57
2022-09-26T02:18:30.771Z,9.61
2022-09-26T02:21:03.418Z,9.63
2022-09-26T02:23:31.202Z,9.69
2022-09-26T02:26:00.013Z,9.68
2022-09-26T02:28:28.502Z,9.74
2022-09-26T02:30:56.884Z,9.66
2022-09-26T02:33:26.288Z,9.72
2022-09-26T02:35:57.502Z,9.70
2022-09-26T02:38:28.600Z,9.65
2022-09-26T02:41:02.140Z,9.76
2022-09-26T02:43:45.403Z,9.70
2022-09-26T02:46:30.293Z,9.71
2022-09-26T02:49:12.121Z,9.80
2022-09-26T02:51:57.577Z,9.74
2022-09-26T02:54:32.496Z,9.77
2022-09-26T02:57:22.050Z,9.79
2022-09-26T02:59:59.751Z,9.74
2022-09-26T03:02:35.358Z,9.82
2022-09-26T03:05:09.734Z,9.85
2022-09-26T03:07:42.672Z,9.79
2022-09-26T03:10:13.044Z,9.90
2022-09-26T03:12:44.372Z,9.90
2022-09-26T03:15:13.912Z,9.81
2022-09-26T03:17:46.058Z,9.97
2022-09-26T03:20:17.142Z,10.00
2022-09-26T03:22:46.067Z,10.06
2022-09-26T03:25:18.550Z,9.97
2022-09-26T03:27:47.871Z,9.88
2022-09-26T03:30:17.828Z,10.01
2022-09-26T03:32:45.620Z,9.94
2022-09-26T03:35:13.454Z,9.99
2022-09-26T03:37:42.735Z,9.90
2022-09-26T03:40:13.172Z,9.89
2022-09-26T03:42:41.419Z,9.91
2022-09-26T03:45:11.466Z,9.95
2022-09-26T03:47:39.460Z,9.98
2022-09-26T03:50:07.924Z,9.96
2022-09-26T03:52:36.494Z,9.82
2022-09-26T03:55:06.573Z,9.89
2022-09-26T03:57:34.300Z,10.03
2022-09-26T04:00:02.161Z,10.02
2022-09-26T04:02:30.022Z,9.97
2022-09-26T04:04:57.785Z,9.86
2022-09-26T04:07:25.566Z,9.85
2022-09-26T04:09:53.488Z,9.94
2022-09-26T04:12:22.575Z,9.94
2022-09-26T04:14:50.486Z,9.96
2022-09-26T04:17:18.803Z,9.96
2022-09-26T04:19:46.622Z,9.88
2022-09-26T04:22:14.336Z,9.95
2022-09-26T04:24:42.111Z,9.85
2022-09-26T04:27:10.292Z,9.80
2022-09-26T04:29:39.492Z,9.79
2022-09-26T04:32:07.332Z,9.85
2022-09-26T04:34:35.076Z,9.89
2022-09-26T04:37:02.876Z,9.81
2022-09-26T04:39:30.657Z,9.81
2022-09-26T04:41:58.483Z,9.71
2022-09-26T04:44:26.332Z,9.85
2022-09-26T04:46:55.453Z,9.83
2022-09-26T04:49:23.676Z,9.88
2022-09-26T04:51:52.068Z,9.85
2022-09-26T04:54:20.471Z,9.87
2022-09-26T04:56:48.223Z,9.85
2022-09-26T04:59:16.079Z,9.77
2022-09-26T05:01:43.973Z,9.75
2022-09-26T05:04:13.470Z,9.71
2022-09-26T05:06:41.447Z,9.77
2022-09-26T05:09:09.312Z,9.72
2022-09-26T05:11:37.089Z,9.74
2022-09-26T05:14:04.873Z,9.74
2022-09-26T05:16:32.788Z,9.79
2022-09-26T05:19:00.631Z,9.67
2022-09-26T05:21:29.778Z,9.61
2022-09-26T05:24:15.648Z,9.74
2022-09-26T05:26:47.243Z,9.74
2022-09-26T05:29:16.261Z,9.70
2022-09-26T05:31:44.105Z,9.66
2022-09-26T05:34:19.198Z,9.65
2022-09-26T05:36:49.020Z,9.59
2022-09-26T05:39:35.922Z,9.71
2022-09-26T05:42:07.479Z,9.71
2022-09-26T05:44:35.343Z,9.67
2022-09-26T05:47:03.118Z,9.62
2022-09-26T05:49:32.876Z,9.61
2022-09-26T05:52:03.220Z,9.73
2022-09-26T05:54:31.091Z,9.66
2022-09-26T05:56:58.836Z,9.69
2022-09-26T05:59:26.852Z,9.80
2022-09-26T06:01:54.953Z,9.81
2022-09-26T06:04:22.690Z,9.78
2022-09-26T06:06:51.292Z,9.87
2022-09-26T06:09:20.418Z,9.86
2022-09-26T06:11:48.198Z,9.91
2022-09-26T06:14:16.063Z,9.94
2022-09-26T06:16:43.901Z,10.04
2022-09-26T06:19:11.710Z,9.95
2022-09-26T06:21:40.276Z,10.05
2022-09-26T06:24:08.547Z,10.10
2022-09-26T06:26:38.164Z,10.14
2022-09-26T06:29:07.531Z,10.11
2022-09-26T06:31:35.419Z,10.09
2022-09-26T06:34:03.369Z,10.06
2022-09-26T06:36:31.557Z,10.21
2022-09-26T06:38:59.305Z,10.23
2022-09-26T06:41:27.452Z,10.31
2022-09-26T06:43:56.938Z,10.28
2022-09-26T06:46:24.764Z,10.35
2022-09-26T06:48:52.536Z,10.30
2022-09-26T06:51:20.624Z,10.38
2022-09-26T06:53:48.381Z,10.46
2022-09-26T06:56:16.226Z,10.44
2022-09-26T06:58:44.010Z,10.36
2022-09-26T07:01:14.549Z,10.40
2022-09-26T07:03:45.607Z,10.36
2022-09-26T07:06:14.331Z,10.55
2022-09-26T07:09:12.719Z,10.37
2022-09-26T07:11:50.367Z,10.29
2022-09-26T07:14:18.242Z,10.42
2022-09-26T07:16:49.407Z,10.45
2022-09-26T07:19:17.266Z,10.42
2022-09-26T07:21:45.305Z,10.46
2022-09-26T07:24:14.265Z,10.55
2022-09-26T07:26:42.157Z,10.52
2022-09-26T07:29:09.987Z,10.56
2022-09-26T07:31:38.159Z,10.63
2022-09-26T07:34:08.617Z,10.67
2022-09-26T07:36:36.490Z,10.75
2022-09-26T07:39:04.292Z,10.67
2022-09-26T07:41:32.110Z,10.65
2022-09-26T07:47:05.375Z,10.52
2022-09-26T07:49:51.938Z,10.67
2022-09-26T07:52:20.660Z,10.75
2022-09-26T07:54:48.449Z,10.67
2022-09-26T07:57:17.088Z,10.63
2022-09-26T07:59:45.786Z,10.71
2022-09-26T08:02:22.434Z,10.67
2022-09-26T08:04:57.630Z,10.67
2022-09-26T08:07:28.146Z,10.67
2022-09-26T08:09:55.975Z,10.64
2022-09-26T08:12:24.208Z,10.65
2022-09-26T08:14:53.019Z,10.74
2022-09-26T08:17:21.636Z,10.78
2022-09-26T08:19:49.459Z,10.69
2022-09-26T08:22:18.579Z,10.69
2022-09-26T08:24:49.764Z,10.69
2022-09-26T08:27:18.046Z,10.54
2022-09-26T08:29:49.495Z,10.67
2022-09-26T08:32:17.628Z,10.59
2022-09-26T08:34:46.032Z,10.64
2022-09-26T08:37:13.870Z,10.65
2022-09-26T08:39:43.043Z,10.63
2022-09-26T08:42:28.800Z,10.54
2022-09-26T08:45:48.079Z,10.57
2022-09-26T08:48:28.423Z,10.61
2022-09-26T08:51:01.391Z,10.59
2022-09-26T08:53:34.806Z,10.63
2022-09-26T08:56:11.721Z,10.68
2022-09-26T08:58:44.050Z,10.41
2022-09-26T09:01:24.741Z,10.43
2022-09-26T09:03:57.082Z,10.36
2022-09-26T09:06:28.268Z,10.38
2022-09-26T09:08:57.953Z,10.23
2022-09-26T09:11:43.081Z,10.10
2022-09-26T09:14:16.949Z,10.25
2022-09-26T09:16:55.939Z,10.14
2022-09-26T09:19:32.928Z,10.18
2022-09-26T09:22:17.440Z,10.12
2022-09-26T09:24:58.215Z,10.27
2022-09-26T09:28:00.129Z,10.28
2022-09-26T09:30:37.936Z,10.25
2022-09-26T09:33:13.168Z,10.11
2022-09-26T09:35:46.207Z,10.14
2022-09-26T09:38:18.790Z,9.97
2022-09-26T09:40:53.029Z,9.93
2022-09-26T09:43:28.601Z,9.84
2022-09-26T09:46:02.780Z,9.85
2022-09-26T09:48:31.401Z,10.01
2022-09-26T09:51:10.570Z,10.13
2022-09-26T09:53:53.021Z,10.10
2022-09-26T09:56:31.912Z,10.14
2022-09-26T09:59:15.707Z,10.21
2022-09-26T10:01:46.739Z,10.17
2022-09-26T10:04:32.717Z,10.18
2022-09-26T10:07:01.995Z,10.37
2022-09-26T10:09:35.944Z,10.35
2022-09-26T10:12:14.204Z,10.50
2022-09-26T10:14:48.619Z,10.51
2022-09-26T10:17:20.415Z,10.36
2022-09-26T10:19:48.731Z,10.62
2022-09-26T10:22:25.995Z,10.60
2022-09-26T10:25:01.566Z,10.63
2022-09-26T10:27:36.945Z,10.69
2022-09-26T10:30:21.286Z,10.52
2022-09-26T10:32:56.279Z,10.57
2022-09-26T10:35:25.912Z,10.72
2022-09-26T10:38:01.205Z,10.83
2022-09-26T10:40:48.420Z,10.69
2022-09-26T10:43:30.509Z,10.85
2022-09-26T10:46:05.528Z,10.84
2022-09-26T10:48:48.175Z,10.84
2022-09-26T10:51:24.282Z,10.90
2022-09-26T10:54:08.331Z,10.82
2022-09-26T10:56:39.898Z,10.84
2022-09-26T10:59:10.615Z,10.88
2022-09-26T11:01:44.071Z,10.96
2022-09-26T11:04:36.039Z,10.98
2022-09-26T11:07:06.680Z,11.11
2022-09-26T11:09:35.890Z,11.16
2022-09-26T11:12:23.779Z,11.29
2022-09-26T11:14:56.994Z,11.42
2022-09-26T11:17:44.494Z,11.48
2022-09-26T11:20:19.147Z,11.60
2022-09-26T11:22:54.439Z,11.63
2022-09-26T11:25:26.931Z,11.53
2022-09-26T11:28:01.247Z,11.60
2022-09-26T11:30:31.300Z,11.50
2022-09-26T11:33:05.469Z,11.71
2022-09-26T11:35:46.720Z,11.96
2022-09-26T11:38:28.719Z,12.15
2022-09-26T11:41:12.142Z,12.08
2022-09-26T11:43:50.347Z,12.13
2022-09-26T11:46:38.438Z,12.31
2022-09-26T11:49:32.904Z,12.49
2022-09-26T11:52:17.711Z,12.60
2022-09-26T11:54:58.704Z,12.34
2022-09-26T11:57:38.992Z,12.45
2022-09-26T12:00:16.240Z,12.57
2022-09-26T12:03:15.755Z,12.71
2022-09-26T12:05:54.283Z,12.47
2022-09-26T12:08:38.396Z,12.67
2022-09-26T12:11:17.259Z,12.73
2022-09-26T12:13:55.641Z,12.67
2022-09-26T12:16:31.295Z,12.64
2022-09-26T12:19:06.185Z,12.63
2022-09-26T12:22:05.908Z,12.51
2022-09-26T12:24:41.384Z,12.70
2022-09-26T12:27:20.515Z,12.53
2022-09-26T12:29:59.114Z,12.48
2022-09-26T12:32:51.882Z,12.50
2022-09-26T12:35:34.267Z,12.29
2022-09-26T12:38:26.512Z,12.20
2022-09-26T12:41:04.801Z,12.12
2022-09-26T12:44:14.020Z,11.98
2022-09-26T12:47:02.556Z,12.08
2022-09-26T12:49:42.910Z,12.05
2022-09-26T12:52:27.312Z,12.21
2022-09-26T12:55:09.666Z,12.20
2022-09-26T12:57:52.965Z,11.98
2022-09-26T13:00:23.058Z,11.85
2022-09-26T13:03:11.738Z,11.90
2022-09-26T13:06:13.320Z,12.07
2022-09-26T13:08:59.038Z,12.00
2022-09-26T13:11:37.138Z,11.86
2022-09-26T13:14:31.108Z,12.12
2022-09-26T13:17:10.516Z,11.99
2022-09-26T13:19:44.604Z,12.07
2022-09-26T13:22:27.764Z,12.08
2022-09-26T13:25:01.232Z,11.97
2022-09-26T13:27:36.261Z,11.88
2022-09-26T13:30:08.214Z,12.04
2022-09-26T13:32:48.692Z,11.92
2022-09-26T13:35:21.660Z,11.97
2022-09-26T13:38:06.164Z,12.18
2022-09-26T13:40:42.580Z,12.07
2022-09-26T13:43:26.112Z,12.10
2022-09-26T13:46:01.240Z,12.22
2022-09-26T13:48:46.462Z,12.13
2022-09-26T13:51:22.002Z,12.19
2022-09-26T13:54:00.068Z,11.99
2022-09-26T13:56:47.850Z,11.98
2022-09-26T13:59:51.899Z,12.04
2022-09-26T14:02:28.458Z,11.88
2022-09-26T14:05:47.833Z,11.99
2022-09-26T14:08:50.576Z,11.89
2022-09-26T14:11:27.830Z,11.77
2022-09-26T14:14:25.254Z,11.62
2022-09-26T14:16:54.676Z,11.64
2022-09-26T14:19:32.292Z,11.57
2022-09-26T14:22:02.694Z,11.46
2022-09-26T14:24:34.786Z,11.49
2022-09-26T14:27:28.664Z,11.52
2022-09-26T14:30:01.789Z,11.55
2022-09-26T14:32:36.992Z,11.64
2022-09-26T14:35:18.894Z,11.64
2022-09-26T14:37:50.122Z,11.49
2022-09-26T14:40:26.396Z,11.62
2022-09-26T14:43:00.643Z,11.62
2022-09-26T14:45:45.433Z,11.65
2022-09-26T14:48:20.681Z,11.46
2022-09-26T14:50:54.323Z,11.25
2022-09-26T14:53:25.899Z,11.31
2022-09-26T14:55:58.417Z,11.09
2022-09-26T14:58:46.143Z,11.21
2022-09-26T15:01:19.403Z,11.32
2022-09-26T15:04:03.682Z,11.35
2022-09-26T15:06:40.348Z,11.42
2022-09-26T15:09:13.742Z,11.37
2022-09-26T15:11:46.457Z,11.23
2022-09-26T15:14:27.196Z,11.29
2022-09-26T15:16:56.933Z,11.07
2022-09-26T15:19:29.543Z,11.07
2022-09-26T15:22:02.029Z,10.99
2022-09-26T15:24:33.286Z,11.02
2022-09-26T15:27:08.974Z,11.06
2022-09-26T15:29:38.091Z,11.12
2022-09-26T15:32:06.885Z,10.94
2022-09-26T15:34:37.306Z,11.00
2022-09-26T15:37:18.766Z,10.87
2022-09-26T15:39:46.970Z,10.98
2022-09-26T15:42:48.228Z,11.00
2022-09-26T15:45:30.069Z,10.83
2022-09-26T15:48:00.113Z,10.87
2022-09-26T15:50:33.401Z,10.67
2022-09-26T15:53:08.216Z,10.61
2022-09-26T15:55:40.899Z,10.78
2022-09-26T15:58:13.208Z,10.58
2022-09-26T16:00:44.351Z,10.58
2022-09-26T16:03:38.938Z,10.62
2022-09-26T16:06:21.388Z,10.52
2022-09-26T16:08:55.692Z,10.58
2022-09-26T16:11:24.495Z,10.56
2022-09-26T16:13:54.006Z,10.60
2022-09-26T16:16:29.844Z,10.60
2022-09-26T16:19:00.542Z,10.57
2022-09-26T16:21:32.144Z,10.64
2022-09-26T16:24:23.316Z,10.73
2022-09-26T16:26:53.482Z,10.57
2022-09-26T16:29:34.101Z,10.43
2022-09-26T16:32:03.310Z,10.51
2022-09-26T16:34:31.944Z,10.54
2022-09-26T16:37:00.033Z,10.47
2022-09-26T16:39:31.287Z,10.58
2022-09-26T16:42:03.446Z,10.61
2022-09-26T16:44:36.390Z,10.47
2022-09-26T16:47:08.943Z,10.40
2022-09-26T16:49:46.850Z,10.42
2022-09-26T16:52:31.138Z,10.39
2022-09-26T16:55:02.237Z,10.30
2022-09-26T16:57:31.934Z,10.20
2022-09-26T17:00:19.757Z,10.21
2022-09-26T17:02:47.899Z,10.32
2022-09-26T17:05:18.490Z,10.21
2022-09-26T17:07:47.643Z,10.26
2022-09-26T17:10:18.276Z,10.27
2022-09-26T17:12:50.754Z,10.33
2022-09-26T17:15:23.102Z,10.29
2022-09-26T17:17:53.768Z,10.08
2022-09-26T17:20:23.656Z,10.22
2022-09-26T17:22:52.034Z,10.01
2022-09-26T17:25:24.923Z,10.22
2022-09-26T17:27:57.661Z,10.17
2022-09-26T17:30:25.574Z,10.14
2022-09-26T17:32:54.497Z,10.27
2022-09-26T17:35:26.353Z,10.25
2022-09-26T17:37:55.221Z,9.91
2022-09-26T17:40:27.055Z,10.25
2022-09-26T17:42:57.369Z,10.27
2022-09-26T17:45:29.439Z,10.08
2022-09-26T17:47:59.615Z,10.21
2022-09-26T17:50:31.311Z,10.16
2022-09-26T17:53:01.061Z,10.03
2022-09-26T17:55:31.413Z,9.94
2022-09-26T17:57:59.848Z,10.17
2022-09-26T18:00:32.071Z,10.05
2022-09-26T18:03:04.421Z,9.92
2022-09-26T18:05:35.072Z,10.19
2022-09-26T18:08:10.313Z,10.08
2022-09-26T18:10:45.146Z,9.82
2022-09-26T18:13:15.510Z,9.93
2022-09-26T18:15:43.602Z,9.91
2022-09-26T18:18:14.410Z,9.89
2022-09-26T18:20:42.613Z,10.03
2022-09-26T18:23:16.099Z,10.02
2022-09-26T18:25:47.442Z,10.04
2022-09-26T18:28:19.982Z,10.00
2022-09-26T18:30:51.545Z,9.79
2022-09-26T18:33:24.275Z,9.97
2022-09-26T18:35:53.230Z,9.88
2022-09-26T18:38:22.107Z,10.01
2022-09-26T18:40:55.767Z,10.09
2022-09-26T18:43:25.855Z,9.94
2022-09-26T18:45:53.940Z,9.89
2022-09-26T18:48:25.182Z,9.80
2022-09-26T18:50:53.563Z,9.88
2022-09-26T18:53:23.232Z,9.85
2022-09-26T18:56:09.780Z,9.81
2022-09-26T18:58:39.224Z,9.82
2022-09-26T19:01:09.557Z,9.85
2022-09-26T19:03:40.231Z,9.78
2022-09-26T19:06:11.917Z,9.75
2022-09-26T19:08:42.904Z,9.75
2022-09-26T19:11:18.948Z,9.79
2022-09-26T19:13:48.989Z,9.83
2022-09-26T19:16:17.834Z,9.80
2022-09-26T19:18:46.500Z,9.75
2022-09-26T19:21:24.234Z,9.86
2022-09-26T19:23:52.949Z,9.78
2022-09-26T19:26:28.399Z,9.79
2022-09-26T19:28:57.851Z,9.82
2022-09-26T19:31:26.156Z,9.81
2022-09-26T19:33:54.494Z,9.87
2022-09-26T19:36:22.500Z,9.65
2022-09-26T19:38:50.414Z,9.61
2022-09-26T19:41:18.326Z,9.79
2022-09-26T19:43:47.678Z,9.83
2022-09-26T19:46:23.970Z,9.81
2022-09-26T19:48:52.081Z,9.88
2022-09-26T19:51:20.035Z,9.77
2022-09-26T19:53:47.954Z,9.83
2022-09-26T19:56:15.775Z,9.77
2022-09-26T19:58:46.328Z,9.87
2022-09-26T20:01:19.332Z,9.95
2022-09-26T20:03:47.777Z,9.96
2022-09-26T20:06:18.391Z,9.91
2022-09-26T20:08:46.601Z,9.97
2022-09-26T20:11:14.630Z,9.97
2022-09-26T20:13:59.770Z,9.84
2022-09-26T20:16:29.432Z,9.82
2022-09-26T20:18:59.051Z,9.87
2022-09-26T20:21:29.465Z,9.77
2022-09-26T20:24:00.859Z,9.94
2022-09-26T20:26:29.949Z,9.89
2022-09-26T20:28:58.060Z,9.83
2022-09-26T20:31:29.416Z,9.97
2022-09-26T20:34:00.016Z,9.90
2022-09-26T20:36:32.029Z,9.88
2022-09-26T20:39:03.359Z,9.94
2022-09-26T20:41:34.097Z,9.93
2022-09-26T20:44:06.091Z,9.91
2022-09-26T20:46:39.370Z,9.86
2022-09-26T20:49:12.518Z,9.90
2022-09-26T20:51:40.483Z,9.85
2022-09-26T20:54:26.600Z,9.82
2022-09-26T20:56:55.052Z,9.90
2022-09-26T20:59:23.772Z,9.94
2022-09-26T21:01:55.212Z,10.00
2022-09-26T21:04:31.489Z,9.88
2022-09-26T21:06:59.722Z,10.04
2022-09-26T21:09:27.656Z,10.02
2022-09-26T21:11:55.583Z,9.94
2022-09-26T21:14:23.441Z,9.86
2022-09-26T21:16:54.814Z,9.98
2022-09-26T21:19:25.274Z,9.96
2022-09-26T21:21:53.389Z,9.87
2022-09-26T21:24:30.050Z,9.80
2022-09-26T21:26:58.186Z,9.76
2022-09-26T21:29:25.987Z,9.82
2022-09-26T21:31:58.477Z,9.86
2022-09-26T21:34:28.725Z,9.93
2022-09-26T21:36:59.518Z,9.87
2022-09-26T21:39:30.000Z,9.89
2022-09-26T21:42:00.967Z,9.87
2022-09-26T21:44:34.194Z,9.73
2022-09-26T21:47:03.517Z,9.87
2022-09-26T21:49:31.679Z,9.88
2022-09-26T21:52:04.271Z,9.75
2022-09-26T21:54:37.274Z,9.80
2022-09-26T21:57:08.654Z,9.74
2022-09-26T21:59:40.090Z,9.97
2022-09-26T22:02:09.470Z,9.85
2022-09-26T22:04:37.504Z,9.80
2022-09-26T22:07:05.469Z,9.79
2022-09-26T22:09:33.400Z,9.82
2022-09-26T22:12:01.471Z,9.94
2022-09-26T22:14:29.395Z,9.86
2022-09-26T22:16:57.627Z,9.95
2022-09-26T22:19:27.607Z,9.80
2022-09-26T22:21:55.828Z,9.88
2022-09-26T22:24:23.840Z,10.00
2022-09-26T22:26:51.845Z,9.85
2022-09-26T22:29:19.815Z,9.92
2022-09-26T22:31:47.648Z,9.89
2022-09-26T22:34:15.794Z,9.94
2022-09-26T22:36:45.071Z,9.98
2022-09-26T22:39:13.025Z,10.02
2022-09-26T22:41:40.905Z,10.08
2022-09-26T22:44:09.411Z,10.09
2022-09-26T22:46:38.233Z,10.13
2022-09-26T22:49:06.439Z,10.19
2022-09-26T22:51:34.464Z,10.05
2022-09-26T22:54:04.223Z,10.15
2022-09-26T22:56:32.061Z,10.15
2022-09-26T22:58:59.970Z,10.14
2022-09-26T23:01:29.168Z,10.10
2022-09-26T23:03:58.720Z,10.12
2022-09-26T23:06:27.607Z,10.05
2022-09-26T23:08:55.678Z,9.89
2022-09-26T23:11:25.252Z,9.97
2022-09-26T23:13:54.027Z,10.06
2022-09-26T23:16:23.906Z,10.02
2022-09-26T23:18:52.672Z,9.91
2022-09-26T23:21:22.662Z,9.96
2022-09-26T23:23:52.457Z,9.94
2022-09-26T23:26:23.363Z,9.96
2022-09-26T23:28:54.271Z,9.84
2022-09-26T23:31:22.955Z,9.75
2022-09-26T23:33:50.921Z,9.76
2022-09-26T23:36:19.661Z,9.78
2022-09-26T23:38:47.626Z,9.81
2022-09-26T23:41:15.920Z,9.81
2022-09-26T23:43:43.924Z,9.55
2022-09-26T23:46:13.728Z,9.57
2022-09-26T23:48:42.334Z,9.70
2022-09-26T23:51:10.705Z,9.72
2022-09-26T23:53:38.470Z,9.64
2022-09-26T23:56:08.869Z,9.73
2022-09-26T23:58:37.429Z,9.65
